Time;durP1;ratioP1;P1;durP2;ratioP2;P2;SDS_P1;SDS_P2;PMS_P1;PMS_P2;Temp;Humidity;BMP_temperature;BMP_pressure;BME280_temperature;BME280_humidity;BME280_pressure;Samples;Min_cycle;Max_cycle;Signal;HPM_P1;HPM_P2
2023/07/15 00:00:13;;;;;;;7.97;2.80;;;;;;;21.86;50.83;100360.75;5021210;28;20033;-62
2023/07/15 00:02:43;;;;;;;7.60;2.55;;;;;;;21.85;50.66;100357.25;5019796;28;20096;-62
2023/07/15 00:05:18;;;;;;;3.55;2.53;;;;;;;21.85;50.63;100349.13;5022963;28;20054;-62
2023/07/15 00:07:43;;;;;;;5.78;2.42;;;;;;;21.88;50.48;100348.63;5026635;28;20445;-62
2023/07/15 00:10:09;;;;;;;4.20;2.30;;;;;;;21.94;50.02;100342.16;5021104;28;20030;-62
2023/07/15 00:12:34;;;;;;;7.15;2.60;;;;;;;21.99;49.81;100351.44;5024356;28;20088;-62
2023/07/15 00:14:59;;;;;;;4.57;2.78;;;;;;;21.95;49.99;100351.91;5026751;28;20083;-62
2023/07/15 00:17:24;;;;;;;6.93;2.67;;;;;;;21.95;49.96;100349.22;5025735;28;20041;-62
2023/07/15 00:19:50;;;;;;;4.65;2.28;;;;;;;21.95;49.50;100348.38;5025261;28;20037;-62
2023/07/15 00:22:15;;;;;;;6.05;2.50;;;;;;;21.96;49.77;100341.91;5022603;28;20049;-61
2023/07/15 00:24:40;;;;;;;6.80;2.70;;;;;;;22.01;49.46;100347.38;5018987;28;20017;-62
2023/07/15 00:27:08;;;;;;;6.35;2.50;;;;;;;22.04;49.12;100354.19;5011825;28;20030;-62
2023/07/15 00:29:33;;;;;;;7.90;2.30;;;;;;;22.06;48.86;100341.22;5024626;28;20517;-62
2023/07/15 00:32:01;;;;;;;4.57;2.50;;;;;;;22.08;48.91;100345.31;5025386;28;20057;-62
2023/07/15 00:34:27;;;;;;;6.22;2.20;;;;;;;22.06;48.86;100349.34;5027909;28;20414;-62
2023/07/15 00:36:52;;;;;;;8.82;2.67;;;;;;;22.10;48.60;100355.84;5027218;28;20108;-62
2023/07/15 00:39:17;;;;;;;3.95;2.13;;;;;;;22.13;48.51;100356.16;5020570;28;20332;-62
2023/07/15 00:41:42;;;;;;;7.22;2.40;;;;;;;22.19;48.21;100359.72;5019178;28;20475;-62
2023/07/15 00:44:14;;;;;;;7.05;2.20;;;;;;;22.24;48.13;100351.63;5019896;28;20141;-62
2023/07/15 00:46:52;;;;;;;3.75;2.35;;;;;;;22.27;47.90;100359.25;5021742;28;20112;-62
2023/07/15 00:49:22;;;;;;;4.93;2.30;;;;;;;22.28;47.88;100351.94;5017974;28;20352;-62
2023/07/15 00:52:03;;;;;;;5.75;2.50;;;;;;;22.36;47.59;100363.09;5025917;28;20471;-62
2023/07/15 00:54:32;;;;;;;4.57;2.38;;;;;;;22.33;47.77;100363.63;5024751;28;20040;-62
2023/07/15 00:57:00;;;;;;;6.22;2.40;;;;;;;22.34;47.43;100367.94;5020553;28;20018;-62
2023/07/15 00:59:26;;;;;;;4.60;2.10;;;;;;;22.31;47.70;100357.66;5025370;28;20418;-61
2023/07/15 01:01:53;;;;;;;5.28;2.45;;;;;;;22.28;47.64;100371.69;5023287;28;20036;-61
2023/07/15 01:04:18;;;;;;;6.53;2.38;;;;;;;22.25;47.90;100369.50;5023998;28;20048;-62
2023/07/15 01:06:45;;;;;;;8.18;2.67;;;;;;;22.22;47.74;100370.00;5024510;28;20661;-62
2023/07/15 01:09:11;;;;;;;9.27;2.30;;;;;;;22.14;48.07;100371.31;5024613;28;20486;-61
2023/07/15 01:11:36;;;;;;;4.47;2.30;;;;;;;22.15;48.01;100364.81;5016050;28;20534;-62
2023/07/15 01:14:02;;;;;;;6.35;2.58;;;;;;;22.10;48.01;100369.38;5015753;28;20038;-62
2023/07/15 01:16:28;;;;;;;11.50;2.25;;;;;;;22.09;47.89;100367.75;5027160;28;20471;-61
2023/07/15 01:18:54;;;;;;;6.05;2.28;;;;;;;22.05;47.83;100375.56;5023281;28;20033;-62
2023/07/15 01:21:20;;;;;;;7.25;2.25;;;;;;;22.00;48.11;100372.78;5024742;28;20039;-62
2023/07/15 01:23:46;;;;;;;3.83;2.13;;;;;;;21.93;48.49;100374.88;5022802;28;20053;-62
2023/07/15 01:26:11;;;;;;;7.13;2.28;;;;;;;21.86;48.55;100364.28;5026194;28;20518;-62
2023/07/15 01:28:37;;;;;;;3.90;2.20;;;;;;;21.81;48.76;100368.81;5021521;28;20044;-62
2023/07/15 01:31:02;;;;;;;6.55;2.30;;;;;;;21.73;48.93;100366.59;5031852;28;20040;-62
2023/07/15 01:33:27;;;;;;;5.88;2.60;;;;;;;21.70;48.94;100361.69;5026503;28;20588;-62
2023/07/15 01:35:53;;;;;;;7.18;2.47;;;;;;;21.66;48.80;100372.19;5019369;28;20025;-62
2023/07/15 01:38:18;;;;;;;4.68;2.30;;;;;;;21.58;49.02;100369.94;5022200;28;20056;-62
2023/07/15 01:40:43;;;;;;;5.78;2.45;;;;;;;21.48;49.35;100372.56;5020524;28;20414;-62
2023/07/15 01:43:10;;;;;;;4.97;2.30;;;;;;;21.41;49.64;100377.34;5017153;28;20028;-62
2023/07/15 01:45:36;;;;;;;5.88;2.38;;;;;;;21.41;49.51;100374.63;5026479;28;20053;-62
2023/07/15 01:48:01;;;;;;;4.82;2.30;;;;;;;21.34;49.52;100386.44;5018222;28;20728;-62
2023/07/15 01:50:26;;;;;;;5.85;2.30;;;;;;;21.29;50.00;100386.38;5026953;28;20025;-62
2023/07/15 01:52:52;;;;;;;7.47;2.35;;;;;;;21.23;50.01;100381.16;5023260;28;20021;-62
2023/07/15 01:55:17;;;;;;;5.68;2.63;;;;;;;21.19;50.29;100378.13;5023863;28;20031;-62
2023/07/15 01:57:42;;;;;;;10.07;2.38;;;;;;;21.16;50.08;100385.94;5027088;28;20367;-61
2023/07/15 02:00:16;;;;;;;6.38;2.40;;;;;;;21.12;50.23;100391.00;5020755;28;20029;-62
2023/07/15 02:02:41;;;;;;;5.07;2.45;;;;;;;21.04;50.56;100389.53;5023402;28;20575;-61
2023/07/15 02:05:07;;;;;;;6.15;2.30;;;;;;;20.99;50.55;100388.66;5026308;28;20068;-62
2023/07/15 02:07:32;;;;;;;7.88;2.58;;;;;;;20.92;50.76;100388.03;5025807;28;20041;-61
2023/07/15 02:09:57;;;;;;;6.03;2.55;;;;;;;20.87;51.04;100390.69;5016953;28;20036;-61
2023/07/15 02:12:22;;;;;;;3.55;2.28;;;;;;;20.74;51.51;100397.22;5025711;28;20021;-62
2023/07/15 02:14:48;;;;;;;4.72;2.28;;;;;;;20.65;51.55;100396.84;5030680;28;20029;-62
2023/07/15 02:17:13;;;;;;;5.57;2.63;;;;;;;20.57;51.75;100389.19;5020923;28;20033;-61
2023/07/15 02:19:39;;;;;;;6.75;2.55;;;;;;;20.52;52.19;100383.69;5029717;28;20200;-61
2023/07/15 02:22:05;;;;;;;6.68;2.20;;;;;;;20.48;52.55;100384.44;5028488;28;20057;-61
2023/07/15 02:24:31;;;;;;;8.27;2.50;;;;;;;20.45;52.57;100388.44;5023700;28;20470;-61
2023/07/15 02:26:56;;;;;;;7.03;2.40;;;;;;;20.42;52.70;100394.31;5024957;28;20479;-61
2023/07/15 02:29:21;;;;;;;5.25;2.45;;;;;;;20.36;52.94;100393.41;5026370;28;20048;-62
2023/07/15 02:31:46;;;;;;;7.82;2.60;;;;;;;20.30;52.78;100388.19;5028052;28;20025;-61
2023/07/15 02:34:13;;;;;;;4.15;2.30;;;;;;;20.25;53.02;100388.94;5029774;28;20559;-62
2023/07/15 02:36:39;;;;;;;7.00;2.67;;;;;;;20.16;53.50;100398.47;5028527;28;20367;-62
2023/07/15 02:39:04;;;;;;;5.25;2.53;;;;;;;20.14;53.76;100395.19;5027650;28;20076;-62
2023/07/15 02:41:32;;;;;;;3.38;2.40;;;;;;;20.09;53.75;100404.03;5027331;28;20026;-61
2023/07/15 02:43:57;;;;;;;4.93;2.38;;;;;;;20.07;53.93;100400.75;5025133;28;20487;-62
2023/07/15 02:46:22;;;;;;;3.42;2.20;;;;;;;20.00;54.26;100397.41;5027107;28;20021;-62
2023/07/15 02:48:47;;;;;;;5.53;2.53;;;;;;;19.98;54.20;100391.44;5014452;28;20541;-61
2023/07/15 02:51:13;;;;;;;6.93;2.50;;;;;;;19.93;54.60;100396.72;5026276;28;20566;-62
2023/07/15 02:53:39;;;;;;;3.60;2.50;;;;;;;19.91;54.68;100388.06;5027119;28;20494;-61
2023/07/15 02:56:05;;;;;;;5.43;2.63;;;;;;;19.88;54.55;100385.84;5029115;28;20049;-61
2023/07/15 02:58:31;;;;;;;7.50;2.50;;;;;;;19.85;54.69;100383.66;5029626;28;20391;-62
2023/07/15 03:00:56;;;;;;;4.18;2.60;;;;;;;19.83;54.88;100380.38;5026666;28;20025;-61
2023/07/15 03:03:21;;;;;;;8.40;2.50;;;;;;;19.85;55.43;100380.94;5026566;28;20025;-62
2023/07/15 03:05:48;;;;;;;4.47;2.40;;;;;;;19.78;55.42;100381.09;5025727;28;20403;-62
2023/07/15 03:08:14;;;;;;;6.45;2.25;;;;;;;19.79;55.85;100381.94;5021070;28;20033;-62
2023/07/15 03:10:41;;;;;;;4.55;2.40;;;;;;;19.78;55.99;100385.69;5026079;28;20432;-62
2023/07/15 03:13:06;;;;;;;7.00;2.35;;;;;;;19.81;56.35;100374.41;5026300;28;20025;-62
2023/07/15 03:15:32;;;;;;;5.85;2.63;;;;;;;19.79;56.51;100384.63;5024973;28;20026;-62
2023/07/15 03:17:57;;;;;;;4.43;2.30;;;;;;;19.72;56.97;100384.78;5017749;28;20472;-62
2023/07/15 03:20:23;;;;;;;5.28;2.42;;;;;;;19.72;57.56;100383.97;5021868;28;20017;-62
2023/07/15 03:22:50;;;;;;;7.90;2.42;;;;;;;19.65;57.14;100376.00;5023528;28;20021;-62
2023/07/15 03:25:16;;;;;;;8.10;2.67;;;;;;;19.65;57.53;100389.47;5023680;28;20114;-62
2023/07/15 03:27:42;;;;;;;4.75;2.30;;;;;;;19.66;57.75;100390.28;5021982;28;20033;-62
2023/07/15 03:30:08;;;;;;;8.15;3.00;;;;;;;19.63;57.43;100390.78;5029117;28;20028;-62
2023/07/15 03:32:37;;;;;;;3.03;2.20;;;;;;;19.61;57.72;100396.41;5023190;28;20059;-62
2023/07/15 03:35:03;;;;;;;;;;;;;;;19.74;57.51;100398.81;5027301;28;20033;-62
2023/07/15 03:37:33;;;;;;;5.32;2.15;;;;;;;19.62;57.58;100395.34;5024796;28;19916;-62
2023/07/15 03:39:58;;;;;;;8.40;2.70;;;;;;;19.61;57.57;100396.41;5027692;28;20021;-62
2023/07/15 03:42:27;;;;;;;5.70;2.60;;;;;;;19.58;57.82;100391.50;5023653;28;20029;-62
2023/07/15 03:44:53;;;;;;;4.63;2.35;;;;;;;19.55;57.92;100394.69;5015613;28;20120;-61
2023/07/15 03:47:19;;;;;;;6.72;2.67;;;;;;;19.54;58.13;100386.84;5022424;28;20469;-62
2023/07/15 03:49:44;;;;;;;4.20;2.47;;;;;;;19.50;58.00;100381.91;5020998;28;20047;-61
2023/07/15 03:52:10;;;;;;;6.70;2.60;;;;;;;19.51;58.04;100388.13;5026236;28;20034;-62
2023/07/15 03:54:35;;;;;;;5.30;2.47;;;;;;;19.48;57.97;100377.81;5027196;28;20048;-62
2023/07/15 03:57:01;;;;;;;5.22;2.80;;;;;;;19.43;58.13;100375.03;5025094;28;20103;-62
2023/07/15 03:59:26;;;;;;;6.47;2.58;;;;;;;19.40;58.34;100376.34;5027931;28;20044;-62
2023/07/15 04:01:52;;;;;;;5.55;2.85;;;;;;;19.43;58.58;100383.13;5023754;28;20025;-62
2023/07/15 04:04:17;;;;;;;7.60;2.72;;;;;;;19.40;58.69;100373.66;5028689;28;20475;-62
2023/07/15 04:06:43;;;;;;;5.38;2.60;;;;;;;19.38;58.94;100378.44;5022759;28;20143;-62
2023/07/15 04:09:11;;;;;;;4.75;2.50;;;;;;;19.40;59.30;100378.22;5022411;28;20120;-62
2023/07/15 04:11:38;;;;;;;4.32;2.72;;;;;;;19.34;59.19;100365.69;5028174;28;20109;-62
2023/07/15 04:14:03;;;;;;;4.13;2.55;;;;;;;19.38;59.31;100374.94;5025501;28;20064;-62
2023/07/15 04:16:29;;;;;;;6.07;2.88;;;;;;;19.36;59.76;100372.47;5025998;28;20049;-62
2023/07/15 04:18:54;;;;;;;5.85;2.20;;;;;;;19.34;59.86;100371.88;5028632;28;20067;-62
2023/07/15 04:21:20;;;;;;;7.63;2.60;;;;;;;19.30;59.79;100376.13;5027443;28;20021;-61
2023/07/15 04:23:45;;;;;;;6.57;2.92;;;;;;;19.29;60.07;100382.56;5027952;28;20100;-61
2023/07/15 04:26:11;;;;;;;5.13;2.70;;;;;;;19.27;60.47;100392.75;5023306;28;20601;-62
2023/07/15 04:28:37;;;;;;;7.78;2.78;;;;;;;19.27;60.65;100391.94;5026338;28;20518;-62
2023/07/15 04:31:02;;;;;;;6.28;2.70;;;;;;;19.24;61.20;100390.53;5025317;28;20063;-62
2023/07/15 04:33:27;;;;;;;3.22;2.50;;;;;;;19.28;61.25;100397.06;5012673;28;20022;-62
2023/07/15 04:35:53;;;;;;;7.13;2.83;;;;;;;19.29;61.13;100389.81;5023812;28;20076;-62
2023/07/15 04:38:20;;;;;;;6.75;2.80;;;;;;;19.26;60.97;100401.88;5027450;28;20056;-62
2023/07/15 04:40:45;;;;;;;6.97;2.70;;;;;;;19.25;61.05;100402.94;5025859;28;20558;-62
2023/07/15 04:43:10;;;;;;;5.78;2.63;;;;;;;19.30;61.10;100402.22;5021669;28;20041;-62
2023/07/15 04:45:36;;;;;;;4.68;2.70;;;;;;;19.35;61.30;100402.31;5021501;28;20049;-62
2023/07/15 04:48:01;;;;;;;6.38;2.85;;;;;;;19.35;61.75;100407.72;5020593;28;20064;-62
2023/07/15 04:50:26;;;;;;;8.77;2.92;;;;;;;19.37;62.06;100394.81;5028625;28;20033;-62
2023/07/15 04:52:52;;;;;;;5.85;2.78;;;;;;;19.39;61.72;100401.63;5027847;28;20383;-62
2023/07/15 04:55:18;;;;;;;6.78;2.80;;;;;;;19.43;61.87;100413.56;5016636;28;20017;-62
2023/07/15 04:57:43;;;;;;;5.68;2.80;;;;;;;19.46;62.09;100401.47;5027195;28;20048;-62
2023/07/15 05:00:10;;;;;;;8.35;3.25;;;;;;;19.52;62.48;100397.00;5020541;28;20105;-62
2023/07/15 05:02:37;;;;;;;4.50;3.03;;;;;;;19.56;63.14;100406.28;5023525;28;20021;-62
2023/07/15 05:05:04;;;;;;;9.52;2.92;;;;;;;19.59;63.02;100408.47;5018630;28;20518;-61
2023/07/15 05:07:29;;;;;;;5.15;2.45;;;;;;;19.66;63.15;100398.38;5024792;28;20025;-62
2023/07/15 05:09:54;;;;;;;3.80;2.53;;;;;;;19.67;63.12;100398.16;5025122;28;20035;-61
2023/07/15 05:12:20;;;;;;;6.22;2.63;;;;;;;19.70;63.07;100400.38;5027266;28;20057;-62
2023/07/15 05:14:45;;;;;;;5.65;2.53;;;;;;;19.74;63.46;100409.59;5021225;28;20029;-61
2023/07/15 05:17:10;;;;;;;4.57;2.60;;;;;;;19.82;63.15;100394.91;5017941;28;20133;-61
2023/07/15 05:19:36;;;;;;;7.03;2.70;;;;;;;19.83;63.36;100393.84;5026746;28;20475;-62
2023/07/15 05:22:01;;;;;;;3.55;2.47;;;;;;;19.88;63.32;100404.72;5016527;28;20064;-62
2023/07/15 05:24:28;;;;;;;7.00;2.70;;;;;;;19.94;63.31;100400.22;5024534;28;20025;-61
2023/07/15 05:26:56;;;;;;;6.65;2.58;;;;;;;19.95;63.79;100408.09;5015926;28;20416;-62
2023/07/15 05:29:22;;;;;;;7.40;3.33;;;;;;;19.99;63.58;100406.56;5016943;28;20028;-62
2023/07/15 05:31:48;;;;;;;7.72;2.78;;;;;;;19.96;63.07;100409.75;5024835;28;20125;-62
2023/07/15 05:34:13;;;;;;;3.88;2.72;;;;;;;19.93;63.17;100418.28;5025561;28;20688;-62
2023/07/15 05:36:38;;;;;;;15.00;3.35;;;;;;;19.91;62.84;100417.69;5023674;28;20028;-61
2023/07/15 05:39:04;;;;;;;4.72;3.20;;;;;;;19.89;62.96;100411.75;5022422;28;20032;-61
2023/07/15 05:41:29;;;;;;;5.85;2.90;;;;;;;19.90;62.79;100415.25;5020512;28;20021;-62
2023/07/15 05:43:54;;;;;;;5.30;2.97;;;;;;;19.91;62.40;100412.31;5020366;28;20087;-62
2023/07/15 05:46:20;;;;;;;7.50;2.95;;;;;;;19.92;62.09;100423.91;5023328;28;20025;-61
2023/07/15 05:48:45;;;;;;;7.47;3.22;;;;;;;19.93;61.98;100412.88;5019861;28;20079;-62
2023/07/15 05:51:10;;;;;;;7.90;2.63;;;;;;;19.97;61.88;100411.38;5030230;28;20018;-62
2023/07/15 05:53:36;;;;;;;9.98;3.17;;;;;;;19.99;62.10;100422.72;5018817;28;20033;-61
2023/07/15 05:56:01;;;;;;;8.80;3.53;;;;;;;20.01;62.32;100427.88;5014603;28;20037;-62
2023/07/15 05:58:26;;;;;;;5.93;3.20;;;;;;;20.04;62.88;100430.06;5022171;28;20056;-61
2023/07/15 06:00:52;;;;;;;5.90;3.42;;;;;;;20.05;63.39;100435.22;5024872;28;20107;-61
2023/07/15 06:03:17;;;;;;;6.40;3.42;;;;;;;20.09;63.61;100428.28;5018844;28;20617;-61
2023/07/15 06:05:43;;;;;;;6.28;3.30;;;;;;;20.15;63.61;100422.97;5017216;28;20076;-62
2023/07/15 06:08:09;;;;;;;7.38;3.45;;;;;;;20.19;63.91;100432.22;5020616;28;20119;-61
2023/07/15 06:10:34;;;;;;;18.38;8.73;;;;;;;20.22;64.06;100426.31;5016456;28;20092;-62
2023/07/15 06:13:00;;;;;;;11.07;6.00;;;;;;;20.25;64.59;100420.47;5024365;28;20053;-62
2023/07/15 06:15:25;;;;;;;19.63;9.32;;;;;;;20.28;64.51;100418.09;5020636;28;20060;-61
2023/07/15 06:17:50;;;;;;;11.73;6.20;;;;;;;20.33;64.74;100428.16;5017744;28;20030;-61
2023/07/15 06:20:18;;;;;;;7.68;3.78;;;;;;;20.40;65.02;100434.22;5021451;28;20140;-62
2023/07/15 06:22:43;;;;;;;5.55;3.00;;;;;;;20.48;65.13;100433.81;5022613;28;20550;-61
2023/07/15 06:25:08;;;;;;;5.93;2.90;;;;;;;20.58;65.56;100430.47;5014181;28;20136;-61
2023/07/15 06:27:34;;;;;;;5.80;3.08;;;;;;;20.69;65.30;100432.25;5028604;28;20021;-62
2023/07/15 06:29:59;;;;;;;7.00;2.90;;;;;;;20.75;65.03;100431.25;5022900;28;20061;-62
2023/07/15 06:32:24;;;;;;;5.93;2.70;;;;;;;20.81;65.04;100437.53;5020623;28;20040;-62
2023/07/15 06:34:49;;;;;;;4.35;2.70;;;;;;;20.87;65.22;100431.97;5027311;28;20052;-62
2023/07/15 06:37:15;;;;;;;6.25;2.70;;;;;;;20.90;65.19;100433.38;5013903;28;20507;-61
2023/07/15 06:39:40;;;;;;;12.13;2.92;;;;;;;20.93;64.44;100432.88;5024840;28;20037;-62
2023/07/15 06:42:05;;;;;;;6.05;2.78;;;;;;;20.93;64.54;100425.59;5025435;28;20057;-62
2023/07/15 06:44:30;;;;;;;3.70;2.67;;;;;;;21.01;63.89;100435.94;5019579;28;20402;-61
2023/07/15 06:46:56;;;;;;;4.38;2.60;;;;;;;21.11;64.01;100431.78;5017007;28;20018;-61
2023/07/15 06:49:21;;;;;;;6.50;2.72;;;;;;;21.18;63.42;100430.50;5023549;28;20025;-61
2023/07/15 06:51:46;;;;;;;5.13;2.30;;;;;;;21.26;63.51;100432.81;5024123;28;20025;-62
2023/07/15 06:54:11;;;;;;;4.95;2.40;;;;;;;21.34;63.20;100442.34;5021343;28;21193;-61
2023/07/15 06:56:37;;;;;;;8.38;2.42;;;;;;;21.41;63.02;100434.06;5024367;28;20021;-60
2023/07/15 06:59:02;;;;;;;7.53;2.30;;;;;;;21.49;63.22;100434.44;5026822;28;20042;-62
2023/07/15 07:01:28;;;;;;;6.25;2.55;;;;;;;21.60;63.01;100435.38;5021998;28;20056;-61
2023/07/15 07:03:53;;;;;;;5.07;2.38;;;;;;;21.68;62.80;100425.97;5026759;28;20021;-61
2023/07/15 07:06:18;;;;;;;5.22;2.38;;;;;;;21.73;62.64;100423.34;5021982;28;20124;-62
2023/07/15 07:08:44;;;;;;;4.07;2.47;;;;;;;21.77;62.49;100428.00;5023721;28;20033;-61
2023/07/15 07:11:09;;;;;;;7.15;2.42;;;;;;;21.82;62.76;100429.94;5025965;28;20597;-61
2023/07/15 07:13:34;;;;;;;5.03;2.40;;;;;;;21.89;62.77;100431.34;5028290;28;20056;-61
2023/07/15 07:16:00;;;;;;;7.03;2.20;;;;;;;21.93;62.56;100434.34;5023880;28;20033;-62
2023/07/15 07:18:25;;;;;;;4.90;2.35;;;;;;;21.99;63.24;100432.53;5020551;28;20017;-61
2023/07/15 07:20:58;;;;;;;5.55;2.58;;;;;;;22.03;63.46;100437.19;5023673;28;20037;-62
2023/07/15 07:23:23;;;;;;;7.93;2.17;;;;;;;22.10;63.80;100439.69;5021384;28;20033;-62
2023/07/15 07:25:50;;;;;;;6.30;2.70;;;;;;;22.16;63.95;100442.19;5021992;28;20040;-62
2023/07/15 07:28:15;;;;;;;7.00;2.10;;;;;;;22.21;64.17;100438.72;5024116;28;20521;-61
2023/07/15 07:30:41;;;;;;;7.15;2.20;;;;;;;22.22;63.88;100441.16;5025046;28;20053;-62
2023/07/15 07:33:06;;;;;;;4.97;2.10;;;;;;;22.27;64.31;100456.63;5028225;28;20029;-62
2023/07/15 07:35:31;;;;;;;6.20;2.30;;;;;;;22.29;64.37;100446.38;5027756;28;20013;-61
2023/07/15 07:37:57;;;;;;;4.68;2.30;;;;;;;22.39;64.84;100441.03;5024711;28;20082;-61
2023/07/15 07:40:22;;;;;;;7.63;2.45;;;;;;;22.53;64.40;100441.41;5028106;28;20412;-62
2023/07/15 07:42:47;;;;;;;6.47;2.05;;;;;;;22.60;64.44;100442.03;5020851;28;20021;-62
2023/07/15 07:45:14;;;;;;;4.28;1.80;;;;;;;22.65;64.87;100449.34;5027260;28;20036;-62
2023/07/15 07:47:39;;;;;;;8.18;2.03;;;;;;;22.71;64.58;100453.72;5022187;28;20018;-62
2023/07/15 07:50:04;;;;;;;3.90;2.17;;;;;;;22.75;64.52;100450.22;5017931;28;20068;-62
2023/07/15 07:52:30;;;;;;;8.20;2.10;;;;;;;22.79;64.84;100450.53;5022015;28;20434;-62
2023/07/15 07:54:55;;;;;;;5.82;1.83;;;;;;;22.85;64.87;100446.84;5011961;28;20104;-61
2023/07/15 07:57:20;;;;;;;4.65;2.00;;;;;;;22.96;64.85;100448.50;5024525;28;20112;-61
2023/07/15 07:59:45;;;;;;;5.30;2.10;;;;;;;23.07;65.14;100439.34;5026332;28;20032;-62
2023/07/15 08:02:11;;;;;;;3.70;1.80;;;;;;;23.16;64.71;100442.41;5026594;28;20526;-62
2023/07/15 08:04:36;;;;;;;4.32;1.80;;;;;;;23.18;64.29;100438.34;5022791;28;20048;-61
2023/07/15 08:07:01;;;;;;;8.88;2.05;;;;;;;23.19;63.72;100420.19;5024895;28;20067;-62
2023/07/15 08:09:27;;;;;;;6.97;1.83;;;;;;;23.19;63.52;100439.16;5021991;28;20025;-61
2023/07/15 08:11:52;;;;;;;5.97;1.85;;;;;;;23.15;63.05;100446.19;5025268;28;20127;-62
2023/07/15 08:14:18;;;;;;;4.82;1.80;;;;;;;23.15;63.84;100470.56;5022230;28;20105;-61
2023/07/15 08:16:43;;;;;;;1.85;1.50;;;;;;;23.11;63.47;100454.00;5024049;28;20498;-62
2023/07/15 08:19:08;;;;;;;2.85;1.50;;;;;;;23.05;63.11;100449.63;5026148;28;20080;-61
2023/07/15 08:21:34;;;;;;;4.00;1.80;;;;;;;23.01;63.53;100459.38;5019561;28;20053;-62
2023/07/15 08:23:59;;;;;;;3.22;1.50;;;;;;;22.96;63.29;100447.69;5022812;28;20056;-62
2023/07/15 08:26:25;;;;;;;4.97;1.60;;;;;;;22.93;63.09;100450.94;5025045;28;20071;-62
2023/07/15 08:28:52;;;;;;;4.90;1.85;;;;;;;23.02;63.40;100458.28;5020117;28;20631;-62
2023/07/15 08:31:17;;;;;;;3.53;2.05;;;;;;;23.07;62.93;100462.91;5023911;28;20061;-62
2023/07/15 08:33:43;;;;;;;3.70;1.80;;;;;;;23.17;63.28;100457.56;5026230;28;20064;-62
2023/07/15 08:36:08;;;;;;;3.15;1.60;;;;;;;23.30;63.38;100458.97;5018524;28;20045;-62
2023/07/15 08:38:33;;;;;;;2.90;2.00;;;;;;;23.39;62.97;100460.09;5021092;28;20029;-62
2023/07/15 08:41:00;;;;;;;4.40;1.60;;;;;;;23.40;62.74;100467.97;5022115;28;20029;-62
2023/07/15 08:43:29;;;;;;;6.63;1.80;;;;;;;23.39;62.54;100479.06;5025483;28;20041;-62
2023/07/15 08:45:58;;;;;;;2.75;1.75;;;;;;;23.36;62.70;100476.88;5019354;28;20103;-62
2023/07/15 08:48:23;;;;;;;3.63;1.52;;;;;;;23.43;62.89;100472.06;5016552;28;20052;-62
2023/07/15 08:50:49;;;;;;;4.85;1.50;;;;;;;23.38;62.60;100477.44;5012826;28;20030;-62
2023/07/15 08:53:18;;;;;;;3.17;1.67;;;;;;;23.35;62.88;100489.63;5015719;28;20502;-61
2023/07/15 08:55:43;;;;;;;2.88;1.52;;;;;;;23.29;62.83;100498.00;5019415;28;20069;-62
2023/07/15 08:58:09;;;;;;;3.25;1.65;;;;;;;23.16;63.09;100502.81;5021707;28;20041;-62
2023/07/15 09:00:34;;;;;;;3.70;1.83;;;;;;;23.09;63.57;100496.78;5022873;28;20511;-62
2023/07/15 09:03:00;;;;;;;5.63;1.67;;;;;;;23.07;63.58;100500.84;5015710;28;20023;-62
2023/07/15 09:05:26;;;;;;;4.03;1.60;;;;;;;23.03;63.95;100502.44;5024102;28;20045;-61
2023/07/15 09:07:55;;;;;;;4.75;1.60;;;;;;;22.97;64.02;100507.00;5014812;28;20550;-62
2023/07/15 09:10:20;;;;;;;3.45;1.70;;;;;;;22.95;64.37;100508.34;5023327;28;20583;-62
2023/07/15 09:12:47;;;;;;;4.68;1.80;;;;;;;22.91;64.35;100516.19;5020058;28;20060;-62
2023/07/15 09:15:13;;;;;;;4.55;1.77;;;;;;;22.86;64.77;100511.56;5018679;28;20120;-62
2023/07/15 09:17:40;;;;;;;4.32;1.92;;;;;;;22.85;65.01;100498.28;5028236;28;20048;-62
2023/07/15 09:20:13;;;;;;;6.28;1.92;;;;;;;22.86;64.93;100505.31;5019346;28;20033;-62
2023/07/15 09:22:39;;;;;;;3.95;1.70;;;;;;;22.88;64.44;100505.88;5021249;28;20475;-62
2023/07/15 09:25:05;;;;;;;4.47;2.00;;;;;;;22.91;64.42;100508.06;5020798;28;20034;-62
2023/07/15 09:27:30;;;;;;;3.15;1.77;;;;;;;23.01;64.49;100504.59;5020208;28;20396;-62
2023/07/15 09:29:55;;;;;;;3.40;1.90;;;;;;;23.14;64.32;100517.69;5026258;28;20407;-62
2023/07/15 09:32:22;;;;;;;5.22;1.88;;;;;;;23.31;64.20;100518.31;5014936;28;20057;-62
2023/07/15 09:34:52;;;;;;;9.38;2.05;;;;;;;23.47;63.41;100511.09;5020480;28;20043;-61
2023/07/15 09:37:28;;;;;;;6.25;2.20;;;;;;;23.59;62.41;100513.63;5016545;28;20052;-62
2023/07/15 09:40:07;;;;;;;4.45;1.95;;;;;;;23.58;61.76;100506.56;5024853;28;20029;-62
2023/07/15 09:42:55;;;;;;;5.75;1.95;;;;;;;23.50;61.73;100505.16;5025805;28;20025;-62
2023/07/15 09:45:40;;;;;;;3.53;2.00;;;;;;;23.35;60.69;100516.72;5020876;28;20028;-61
2023/07/15 09:48:13;;;;;;;6.03;2.17;;;;;;;23.24;60.83;100516.94;5019546;28;20045;-62
2023/07/15 09:50:40;;;;;;;6.60;2.17;;;;;;;23.13;60.60;100526.88;5019989;28;20030;-62
2023/07/15 09:53:06;;;;;;;6.10;1.90;;;;;;;23.07;60.55;100528.75;5015284;28;20029;-62
2023/07/15 09:55:33;;;;;;;6.72;2.00;;;;;;;23.01;60.90;100539.81;5021147;28;20049;-62
2023/07/15 09:58:04;;;;;;;6.78;2.35;;;;;;;22.97;60.85;100544.94;5016279;28;20072;-62
2023/07/15 10:00:34;;;;;;;4.82;2.35;;;;;;;22.92;60.99;100554.91;5021068;28;20423;-62
2023/07/15 10:03:02;;;;;;;6.70;1.90;;;;;;;22.85;61.14;100555.97;5019980;28;20044;-62
2023/07/15 10:05:28;;;;;;;6.10;1.83;;;;;;;22.80;61.01;100555.03;5025219;28;20021;-62
2023/07/15 10:07:54;;;;;;;6.32;2.60;;;;;;;22.72;61.30;100552.81;5021411;28;20034;-62
2023/07/15 10:10:20;;;;;;;6.10;2.10;;;;;;;22.68;61.67;100557.13;5016752;28;20579;-62
2023/07/15 10:12:46;;;;;;;3.40;1.98;;;;;;;22.63;61.58;100552.47;5026024;28;20044;-61
2023/07/15 10:15:12;;;;;;;7.40;2.15;;;;;;;22.59;62.31;100550.56;5017998;28;20033;-62
2023/07/15 10:17:38;;;;;;;3.60;2.05;;;;;;;22.52;62.89;100546.13;5022334;28;20032;-62
2023/07/15 10:20:12;;;;;;;6.68;2.05;;;;;;;22.39;63.72;100546.56;5015919;28;20052;-62
2023/07/15 10:22:39;;;;;;;4.03;1.90;;;;;;;22.31;64.57;100548.94;5025739;28;20025;-62
2023/07/15 10:25:08;;;;;;;4.10;1.92;;;;;;;22.23;64.71;100539.34;5023473;28;20033;-61
2023/07/15 10:27:36;;;;;;;6.28;2.28;;;;;;;22.13;65.33;100529.25;5021046;28;20045;-62
2023/07/15 10:30:28;;;;;;;5.07;2.25;;;;;;;22.09;65.93;100530.84;5025426;28;20025;-62
2023/07/15 10:33:07;;;;;;;5.95;2.35;;;;;;;22.04;66.51;100513.75;5033069;28;20029;-62
2023/07/15 10:35:42;;;;;;;5.80;2.45;;;;;;;22.08;66.74;100501.34;5023863;28;20040;-62
2023/07/15 10:38:27;;;;;;;5.43;2.30;;;;;;;22.08;67.14;100506.75;5023356;28;20029;-61
2023/07/15 10:41:02;;;;;;;4.32;2.22;;;;;;;22.07;67.60;100521.34;5026633;28;20022;-62
2023/07/15 10:43:33;;;;;;;3.10;2.20;;;;;;;22.14;67.91;100516.56;5020730;28;20021;-62
2023/07/15 10:46:09;;;;;;;7.25;2.20;;;;;;;22.23;67.70;100507.72;5027537;28;20017;-62
2023/07/15 10:48:35;;;;;;;3.67;2.00;;;;;;;22.41;67.78;100503.00;5024200;28;20091;-61
2023/07/15 10:51:04;;;;;;;3.97;2.10;;;;;;;22.60;67.09;100503.47;5025173;28;20021;-62
2023/07/15 10:53:29;;;;;;;3.10;2.00;;;;;;;22.61;66.72;100513.22;5021274;28;20519;-62
2023/07/15 10:56:06;;;;;;;4.30;2.20;;;;;;;22.65;67.02;100522.44;5027105;28;20017;-62
2023/07/15 10:58:34;;;;;;;3.53;2.08;;;;;;;22.70;67.01;100511.66;5028350;28;20017;-62
2023/07/15 11:01:01;;;;;;;4.70;2.30;;;;;;;22.72;65.90;100528.44;5026971;28;20025;-62
2023/07/15 11:03:36;;;;;;;6.30;2.20;;;;;;;22.78;66.02;100530.13;5015900;28;20487;-62
2023/07/15 11:06:02;;;;;;;4.15;2.00;;;;;;;22.84;66.04;100526.41;5026765;28;20025;-62
2023/07/15 11:08:28;;;;;;;4.82;2.10;;;;;;;22.82;65.40;100525.84;5030727;28;20028;-61
2023/07/15 11:10:57;;;;;;;5.40;1.98;;;;;;;22.80;65.02;100519.84;5028321;28;20100;-62
2023/07/15 11:13:22;;;;;;;3.00;1.73;;;;;;;22.71;64.73;100516.00;5020736;28;20399;-62
2023/07/15 11:15:48;;;;;;;3.28;2.00;;;;;;;22.66;65.30;100521.38;5026284;28;20032;-62
2023/07/15 11:18:17;;;;;;;4.75;1.90;;;;;;;22.74;65.74;100521.69;5026872;28;20028;-62
2023/07/15 11:20:45;;;;;;;5.15;2.15;;;;;;;22.78;65.51;100524.69;5020649;28;20406;-62